sensor_id;sensor_type;location;lat;lon;timestamp;temperature;humidity
3334;DHT22;1679;50.392;8.008;2023-04-25T00:02:21;8.20;99.90
3334;DHT22;1679;50.392;8.008;2023-04-25T00:04:47;8.10;99.90
3334;DHT22;1679;50.392;8.008;2023-04-25T00:07:15;8.10;99.90
3334;DHT22;1679;50.392;8.008;2023-04-25T00:09:42;8.00;99.90
3334;DHT22;1679;50.392;8.008;2023-04-25T00:12:08;7.90;99.90
3334;DHT22;1679;50.392;8.008;2023-04-25T00:14:33;7.80;99.90
3334;DHT22;1679;50.392;8.008;2023-04-25T00:16:59;7.80;99.90
3334;DHT22;1679;50.392;8.008;2023-04-25T00:19:25;7.70;99.90
3334;DHT22;1679;50.392;8.008;2023-04-25T00:21:52;7.70;99.90
3334;DHT22;1679;50.392;8.008;2023-04-25T00:24:19;7.60;99.90
3334;DHT22;1679;50.392;8.008;2023-04-25T00:26:44;7.60;99.90
3334;DHT22;1679;50.392;8.008;2023-04-25T00:29:10;7.60;99.90
3334;DHT22;1679;50.392;8.008;2023-04-25T00:31:35;7.60;99.90
3334;DHT22;1679;50.392;8.008;2023-04-25T00:34:01;7.60;99.90
3334;DHT22;1679;50.392;8.008;2023-04-25T00:36:26;7.50;99.90
3334;DHT22;1679;50.392;8.008;2023-04-25T00:38:53;7.50;99.90
3334;DHT22;1679;50.392;8.008;2023-04-25T00:41:20;7.40;99.90
3334;DHT22;1679;50.392;8.008;2023-04-25T00:43:48;7.40;99.90
3334;DHT22;1679;50.392;8.008;2023-04-25T00:46:13;7.30;99.90
3334;DHT22;1679;50.392;8.008;2023-04-25T00:48:39;7.30;99.90
3334;DHT22;1679;50.392;8.008;2023-04-25T00:51:04;7.20;99.90
3334;DHT22;1679;50.392;8.008;2023-04-25T00:53:30;7.10;99.90
3334;DHT22;1679;50.392;8.008;2023-04-25T00:55:57;7.10;99.90
3334;DHT22;1679;50.392;8.008;2023-04-25T00:58:23;7.00;99.90
3334;DHT22;1679;50.392;8.008;2023-04-25T01:00:51;7.00;99.90
3334;DHT22;1679;50.392;8.008;2023-04-25T01:03:17;7.00;99.90
3334;DHT22;1679;50.392;8.008;2023-04-25T01:05:45;7.00;99.90
3334;DHT22;1679;50.392;8.008;2023-04-25T01:08:12;7.00;99.90
3334;DHT22;1679;50.392;8.008;2023-04-25T01:10:38;7.00;99.90
3334;DHT22;1679;50.392;8.008;2023-04-25T01:13:03;7.00;99.90
3334;DHT22;1679;50.392;8.008;2023-04-25T01:15:29;7.00;99.90
3334;DHT22;1679;50.392;8.008;2023-04-25T01:17:55;7.00;99.90
3334;DHT22;1679;50.392;8.008;2023-04-25T01:20:22;7.00;99.90
3334;DHT22;1679;50.392;8.008;2023-04-25T01:22:51;7.00;99.90
3334;DHT22;1679;50.392;8.008;2023-04-25T01:25:17;6.90;99.90
3334;DHT22;1679;50.392;8.008;2023-04-25T01:27:44;6.90;99.90
3334;DHT22;1679;50.392;8.008;2023-04-25T01:30:10;6.80;99.90
3334;DHT22;1679;50.392;8.008;2023-04-25T01:32:36;6.80;99.90
3334;DHT22;1679;50.392;8.008;2023-04-25T01:35:05;6.80;99.90
3334;DHT22;1679;50.392;8.008;2023-04-25T01:37:36;6.80;99.90
3334;DHT22;1679;50.392;8.008;2023-04-25T01:40:01;6.70;99.90
3334;DHT22;1679;50.392;8.008;2023-04-25T01:42:27;6.70;99.90
3334;DHT22;1679;50.392;8.008;2023-04-25T01:44:53;6.60;99.90
3334;DHT22;1679;50.392;8.008;2023-04-25T01:47:18;6.50;99.90
3334;DHT22;1679;50.392;8.008;2023-04-25T01:49:44;6.40;99.90
3334;DHT22;1679;50.392;8.008;2023-04-25T01:52:09;6.40;99.90
3334;DHT22;1679;50.392;8.008;2023-04-25T01:54:36;6.40;99.90
3334;DHT22;1679;50.392;8.008;2023-04-25T01:57:02;6.40;99.90
3334;DHT22;1679;50.392;8.008;2023-04-25T01:59:28;6.30;99.90
3334;DHT22;1679;50.392;8.008;2023-04-25T02:01:54;6.30;99.90
3334;DHT22;1679;50.392;8.008;2023-04-25T02:04:19;6.20;99.90
3334;DHT22;1679;50.392;8.008;2023-04-25T02:06:45;6.10;99.90
3334;DHT22;1679;50.392;8.008;2023-04-25T02:09:11;6.00;99.90
3334;DHT22;1679;50.392;8.008;2023-04-25T02:11:36;6.00;99.90
3334;DHT22;1679;50.392;8.008;2023-04-25T02:14:02;6.00;99.90
3334;DHT22;1679;50.392;8.008;2023-04-25T02:16:27;6.00;99.90
3334;DHT22;1679;50.392;8.008;2023-04-25T02:18:53;6.00;99.90
3334;DHT22;1679;50.392;8.008;2023-04-25T02:21:19;5.90;99.90
3334;DHT22;1679;50.392;8.008;2023-04-25T02:23:44;6.00;99.90
3334;DHT22;1679;50.392;8.008;2023-04-25T02:26:14;5.90;99.90
3334;DHT22;1679;50.392;8.008;2023-04-25T02:28:39;5.90;99.90
3334;DHT22;1679;50.392;8.008;2023-04-25T02:31:05;5.90;99.90
3334;DHT22;1679;50.392;8.008;2023-04-25T02:33:31;5.90;99.90
3334;DHT22;1679;50.392;8.008;2023-04-25T02:35:56;5.80;99.90
3334;DHT22;1679;50.392;8.008;2023-04-25T02:38:21;5.80;99.90
3334;DHT22;1679;50.392;8.008;2023-04-25T02:40:47;5.80;99.90
3334;DHT22;1679;50.392;8.008;2023-04-25T02:43:12;5.80;99.90
3334;DHT22;1679;50.392;8.008;2023-04-25T02:45:38;5.80;99.90
3334;DHT22;1679;50.392;8.008;2023-04-25T02:48:04;5.80;99.90
3334;DHT22;1679;50.392;8.008;2023-04-25T02:50:29;5.70;99.90
3334;DHT22;1679;50.392;8.008;2023-04-25T02:52:55;5.70;99.90
3334;DHT22;1679;50.392;8.008;2023-04-25T02:55:21;5.70;99.90
3334;DHT22;1679;50.392;8.008;2023-04-25T02:57:47;5.70;99.90
3334;DHT22;1679;50.392;8.008;2023-04-25T03:00:13;5.60;99.90
3334;DHT22;1679;50.392;8.008;2023-04-25T03:02:39;5.60;99.90
3334;DHT22;1679;50.392;8.008;2023-04-25T03:05:05;5.60;99.90
3334;DHT22;1679;50.392;8.008;2023-04-25T03:07:31;5.60;99.90
3334;DHT22;1679;50.392;8.008;2023-04-25T03:09:56;5.60;99.90
3334;DHT22;1679;50.392;8.008;2023-04-25T03:12:22;5.60;99.90
3334;DHT22;1679;50.392;8.008;2023-04-25T03:14:47;5.50;99.90
3334;DHT22;1679;50.392;8.008;2023-04-25T03:17:13;5.50;99.90
3334;DHT22;1679;50.392;8.008;2023-04-25T03:19:39;5.50;99.90
3334;DHT22;1679;50.392;8.008;2023-04-25T03:22:04;5.50;99.90
3334;DHT22;1679;50.392;8.008;2023-04-25T03:24:30;5.40;99.90
3334;DHT22;1679;50.392;8.008;2023-04-25T03:26:57;5.40;99.90
3334;DHT22;1679;50.392;8.008;2023-04-25T03:29:22;5.40;99.90
3334;DHT22;1679;50.392;8.008;2023-04-25T03:31:50;5.30;99.90
3334;DHT22;1679;50.392;8.008;2023-04-25T03:34:16;5.30;99.90
3334;DHT22;1679;50.392;8.008;2023-04-25T03:36:41;5.30;99.90
3334;DHT22;1679;50.392;8.008;2023-04-25T03:39:07;5.40;99.90
3334;DHT22;1679;50.392;8.008;2023-04-25T03:41:32;5.30;99.90
3334;DHT22;1679;50.392;8.008;2023-04-25T03:43:58;5.30;99.90
3334;DHT22;1679;50.392;8.008;2023-04-25T03:46:23;5.20;99.90
3334;DHT22;1679;50.392;8.008;2023-04-25T03:48:49;5.20;99.90
3334;DHT22;1679;50.392;8.008;2023-04-25T03:51:15;5.20;99.90
3334;DHT22;1679;50.392;8.008;2023-04-25T03:53:41;5.20;99.90
3334;DHT22;1679;50.392;8.008;2023-04-25T03:56:06;5.30;99.90
3334;DHT22;1679;50.392;8.008;2023-04-25T03:58:32;5.30;99.90
3334;DHT22;1679;50.392;8.008;2023-04-25T04:00:57;5.30;99.90
3334;DHT22;1679;50.392;8.008;2023-04-25T04:03:23;5.40;99.90
3334;DHT22;1679;50.392;8.008;2023-04-25T04:05:48;5.30;99.90
3334;DHT22;1679;50.392;8.008;2023-04-25T04:08:14;5.30;99.90
3334;DHT22;1679;50.392;8.008;2023-04-25T04:10:39;5.30;99.90
3334;DHT22;1679;50.392;8.008;2023-04-25T04:13:05;5.30;99.90
3334;DHT22;1679;50.392;8.008;2023-04-25T04:15:31;5.30;99.90
3334;DHT22;1679;50.392;8.008;2023-04-25T04:17:58;5.20;99.90
3334;DHT22;1679;50.392;8.008;2023-04-25T04:20:28;5.30;99.90
3334;DHT22;1679;50.392;8.008;2023-04-25T04:22:53;5.20;99.90
3334;DHT22;1679;50.392;8.008;2023-04-25T04:25:19;5.20;99.90
3334;DHT22;1679;50.392;8.008;2023-04-25T04:27:45;5.20;99.90
3334;DHT22;1679;50.392;8.008;2023-04-25T04:30:11;5.20;99.90
3334;DHT22;1679;50.392;8.008;2023-04-25T04:32:37;5.20;99.90
3334;DHT22;1679;50.392;8.008;2023-04-25T04:35:03;5.20;99.90
3334;DHT22;1679;50.392;8.008;2023-04-25T04:37:30;5.20;99.90
3334;DHT22;1679;50.392;8.008;2023-04-25T04:39:55;5.20;99.90
3334;DHT22;1679;50.392;8.008;2023-04-25T04:42:21;5.20;99.90
3334;DHT22;1679;50.392;8.008;2023-04-25T04:44:48;5.20;99.90
3334;DHT22;1679;50.392;8.008;2023-04-25T04:47:13;5.20;99.90
3334;DHT22;1679;50.392;8.008;2023-04-25T04:49:39;5.20;99.90
3334;DHT22;1679;50.392;8.008;2023-04-25T04:52:05;5.20;99.90
3334;DHT22;1679;50.392;8.008;2023-04-25T04:54:30;5.20;99.90
3334;DHT22;1679;50.392;8.008;2023-04-25T04:56:56;5.30;99.90
3334;DHT22;1679;50.392;8.008;2023-04-25T04:59:21;5.30;99.90
3334;DHT22;1679;50.392;8.008;2023-04-25T05:01:47;5.40;99.90
3334;DHT22;1679;50.392;8.008;2023-04-25T05:04:12;5.40;99.90
3334;DHT22;1679;50.392;8.008;2023-04-25T05:06:38;5.50;99.90
3334;DHT22;1679;50.392;8.008;2023-04-25T05:09:03;5.60;99.90
3334;DHT22;1679;50.392;8.008;2023-04-25T05:11:29;5.60;99.90
3334;DHT22;1679;50.392;8.008;2023-04-25T05:13:55;5.70;99.90
3334;DHT22;1679;50.392;8.008;2023-04-25T05:16:20;5.80;99.90
3334;DHT22;1679;50.392;8.008;2023-04-25T05:18:47;5.90;99.90
3334;DHT22;1679;50.392;8.008;2023-04-25T05:21:12;6.00;99.90
3334;DHT22;1679;50.392;8.008;2023-04-25T05:23:38;6.10;99.90
3334;DHT22;1679;50.392;8.008;2023-04-25T05:26:04;6.20;99.90
3334;DHT22;1679;50.392;8.008;2023-04-25T05:28:29;6.30;99.90
3334;DHT22;1679;50.392;8.008;2023-04-25T05:30:55;6.40;99.90
3334;DHT22;1679;50.392;8.008;2023-04-25T05:33:21;6.40;99.90
3334;DHT22;1679;50.392;8.008;2023-04-25T05:35:46;6.50;99.90
3334;DHT22;1679;50.392;8.008;2023-04-25T05:38:12;6.60;99.90
3334;DHT22;1679;50.392;8.008;2023-04-25T05:40:38;6.70;99.90
3334;DHT22;1679;50.392;8.008;2023-04-25T05:43:03;6.80;99.90
3334;DHT22;1679;50.392;8.008;2023-04-25T05:45:29;6.70;99.90
3334;DHT22;1679;50.392;8.008;2023-04-25T05:47:54;6.70;99.90
3334;DHT22;1679;50.392;8.008;2023-04-25T05:50:20;6.80;99.90
3334;DHT22;1679;50.392;8.008;2023-04-25T05:52:45;6.90;99.90
3334;DHT22;1679;50.392;8.008;2023-04-25T05:55:12;7.10;99.90
3334;DHT22;1679;50.392;8.008;2023-04-25T05:57:37;7.10;99.90
3334;DHT22;1679;50.392;8.008;2023-04-25T06:00:08;7.00;99.90
3334;DHT22;1679;50.392;8.008;2023-04-25T06:02:34;7.00;99.90
3334;DHT22;1679;50.392;8.008;2023-04-25T06:05:00;7.00;99.90
3334;DHT22;1679;50.392;8.008;2023-04-25T06:07:28;7.00;99.90
3334;DHT22;1679;50.392;8.008;2023-04-25T06:09:55;7.00;99.90
3334;DHT22;1679;50.392;8.008;2023-04-25T06:12:20;7.00;99.90
3334;DHT22;1679;50.392;8.008;2023-04-25T06:14:46;7.00;99.90
3334;DHT22;1679;50.392;8.008;2023-04-25T06:17:11;7.00;99.90
3334;DHT22;1679;50.392;8.008;2023-04-25T06:19:37;7.10;99.90
3334;DHT22;1679;50.392;8.008;2023-04-25T06:22:02;7.40;99.90
3334;DHT22;1679;50.392;8.008;2023-04-25T06:24:28;7.50;99.90
3334;DHT22;1679;50.392;8.008;2023-04-25T06:26:54;7.50;99.90
3334;DHT22;1679;50.392;8.008;2023-04-25T06:29:20;7.60;99.90
3334;DHT22;1679;50.392;8.008;2023-04-25T06:31:45;7.60;99.90
3334;DHT22;1679;50.392;8.008;2023-04-25T06:34:11;7.70;99.90
3334;DHT22;1679;50.392;8.008;2023-04-25T06:36:36;7.70;99.90
3334;DHT22;1679;50.392;8.008;2023-04-25T06:39:02;7.80;99.90
3334;DHT22;1679;50.392;8.008;2023-04-25T06:41:28;7.90;99.90
3334;DHT22;1679;50.392;8.008;2023-04-25T06:43:53;7.90;99.90
3334;DHT22;1679;50.392;8.008;2023-04-25T06:46:19;8.00;99.90
3334;DHT22;1679;50.392;8.008;2023-04-25T06:48:44;8.10;99.90
3334;DHT22;1679;50.392;8.008;2023-04-25T06:51:10;8.00;99.90
3334;DHT22;1679;50.392;8.008;2023-04-25T06:53:35;7.90;99.90
3334;DHT22;1679;50.392;8.008;2023-04-25T06:56:01;7.70;99.90
3334;DHT22;1679;50.392;8.008;2023-04-25T06:58:28;7.50;99.90
3334;DHT22;1679;50.392;8.008;2023-04-25T07:00:53;7.40;99.90
3334;DHT22;1679;50.392;8.008;2023-04-25T07:03:19;7.40;99.90
3334;DHT22;1679;50.392;8.008;2023-04-25T07:05:44;7.40;99.90
3334;DHT22;1679;50.392;8.008;2023-04-25T07:08:11;7.60;99.90
3334;DHT22;1679;50.392;8.008;2023-04-25T07:10:36;7.80;99.90
3334;DHT22;1679;50.392;8.008;2023-04-25T07:13:02;7.90;99.90
3334;DHT22;1679;50.392;8.008;2023-04-25T07:15:28;7.80;99.90
3334;DHT22;1679;50.392;8.008;2023-04-25T07:17:55;7.70;99.90
3334;DHT22;1679;50.392;8.008;2023-04-25T07:20:22;7.70;99.90
3334;DHT22;1679;50.392;8.008;2023-04-25T07:22:47;7.70;99.90
3334;DHT22;1679;50.392;8.008;2023-04-25T07:25:13;7.70;99.90
3334;DHT22;1679;50.392;8.008;2023-04-25T07:27:38;7.80;99.90
3334;DHT22;1679;50.392;8.008;2023-04-25T07:30:06;7.80;99.90
3334;DHT22;1679;50.392;8.008;2023-04-25T07:32:32;7.90;99.90
3334;DHT22;1679;50.392;8.008;2023-04-25T07:34:58;8.00;99.90
3334;DHT22;1679;50.392;8.008;2023-04-25T07:37:23;8.00;99.90
3334;DHT22;1679;50.392;8.008;2023-04-25T07:39:49;8.20;99.90
3334;DHT22;1679;50.392;8.008;2023-04-25T07:42:14;8.30;99.90
3334;DHT22;1679;50.392;8.008;2023-04-25T07:44:40;8.40;99.90
3334;DHT22;1679;50.392;8.008;2023-04-25T07:47:06;8.80;99.90
3334;DHT22;1679;50.392;8.008;2023-04-25T07:49:33;8.90;99.90
3334;DHT22;1679;50.392;8.008;2023-04-25T07:51:59;9.00;99.90
3334;DHT22;1679;50.392;8.008;2023-04-25T07:54:24;8.90;99.90
3334;DHT22;1679;50.392;8.008;2023-04-25T07:56:50;8.90;99.90
3334;DHT22;1679;50.392;8.008;2023-04-25T07:59:17;9.10;99.90
3334;DHT22;1679;50.392;8.008;2023-04-25T08:01:42;9.10;99.90
3334;DHT22;1679;50.392;8.008;2023-04-25T08:04:08;9.00;99.90
3334;DHT22;1679;50.392;8.008;2023-04-25T08:06:33;8.90;99.90
3334;DHT22;1679;50.392;8.008;2023-04-25T08:08:59;9.10;99.90
3334;DHT22;1679;50.392;8.008;2023-04-25T08:11:25;9.20;99.90
3334;DHT22;1679;50.392;8.008;2023-04-25T08:13:51;9.10;99.90
3334;DHT22;1679;50.392;8.008;2023-04-25T08:16:16;9.30;99.90
3334;DHT22;1679;50.392;8.008;2023-04-25T08:18:42;9.60;99.90
3334;DHT22;1679;50.392;8.008;2023-04-25T08:21:07;9.60;99.90
3334;DHT22;1679;50.392;8.008;2023-04-25T08:23:36;9.40;99.90
3334;DHT22;1679;50.392;8.008;2023-04-25T08:26:02;9.30;99.90
3334;DHT22;1679;50.392;8.008;2023-04-25T08:28:28;9.40;99.90
3334;DHT22;1679;50.392;8.008;2023-04-25T08:30:53;9.50;99.90
3334;DHT22;1679;50.392;8.008;2023-04-25T08:33:19;9.80;99.90
3334;DHT22;1679;50.392;8.008;2023-04-25T08:35:45;10.20;99.90
3334;DHT22;1679;50.392;8.008;2023-04-25T08:38:10;10.50;99.90
3334;DHT22;1679;50.392;8.008;2023-04-25T08:40:38;10.70;99.90
3334;DHT22;1679;50.392;8.008;2023-04-25T08:43:06;10.60;99.90
3334;DHT22;1679;50.392;8.008;2023-04-25T08:45:38;10.40;99.90
3334;DHT22;1679;50.392;8.008;2023-04-25T08:48:05;10.20;99.90
3334;DHT22;1679;50.392;8.008;2023-04-25T08:50:34;10.40;99.90
3334;DHT22;1679;50.392;8.008;2023-04-25T08:53:04;10.40;99.90
3334;DHT22;1679;50.392;8.008;2023-04-25T08:55:33;10.90;99.90
3334;DHT22;1679;50.392;8.008;2023-04-25T08:58:00;11.50;99.90
3334;DHT22;1679;50.392;8.008;2023-04-25T09:00:26;11.90;99.90
3334;DHT22;1679;50.392;8.008;2023-04-25T09:02:52;11.90;99.90
3334;DHT22;1679;50.392;8.008;2023-04-25T09:05:18;12.00;99.90
3334;DHT22;1679;50.392;8.008;2023-04-25T09:07:44;12.10;99.90
3334;DHT22;1679;50.392;8.008;2023-04-25T09:10:09;12.00;99.90
3334;DHT22;1679;50.392;8.008;2023-04-25T09:12:35;12.10;99.90
3334;DHT22;1679;50.392;8.008;2023-04-25T09:15:11;11.50;99.90
3334;DHT22;1679;50.392;8.008;2023-04-25T09:17:37;10.80;99.90
3334;DHT22;1679;50.392;8.008;2023-04-25T09:20:11;10.50;99.90
3334;DHT22;1679;50.392;8.008;2023-04-25T09:22:37;10.20;99.90
3334;DHT22;1679;50.392;8.008;2023-04-25T09:25:08;9.90;99.90
3334;DHT22;1679;50.392;8.008;2023-04-25T09:27:34;9.90;99.90
3334;DHT22;1679;50.392;8.008;2023-04-25T09:30:00;10.00;99.90
3334;DHT22;1679;50.392;8.008;2023-04-25T09:32:26;10.00;99.90
3334;DHT22;1679;50.392;8.008;2023-04-25T09:34:53;10.20;99.90
3334;DHT22;1679;50.392;8.008;2023-04-25T09:37:20;10.40;99.90
3334;DHT22;1679;50.392;8.008;2023-04-25T09:39:50;10.30;99.90
3334;DHT22;1679;50.392;8.008;2023-04-25T09:42:16;10.00;99.90
3334;DHT22;1679;50.392;8.008;2023-04-25T09:44:43;9.70;99.90
3334;DHT22;1679;50.392;8.008;2023-04-25T09:47:10;9.60;99.90
3334;DHT22;1679;50.392;8.008;2023-04-25T09:49:39;9.80;99.90
3334;DHT22;1679;50.392;8.008;2023-04-25T09:52:06;9.90;99.90
3334;DHT22;1679;50.392;8.008;2023-04-25T09:54:31;9.90;99.90
3334;DHT22;1679;50.392;8.008;2023-04-25T09:56:58;10.20;99.90
3334;DHT22;1679;50.392;8.008;2023-04-25T09:59:27;10.10;99.90
3334;DHT22;1679;50.392;8.008;2023-04-25T10:01:54;10.10;99.90
3334;DHT22;1679;50.392;8.008;2023-04-25T10:04:25;10.20;99.90
3334;DHT22;1679;50.392;8.008;2023-04-25T10:06:53;10.10;99.90
3334;DHT22;1679;50.392;8.008;2023-04-25T10:09:20;10.10;99.90
3334;DHT22;1679;50.392;8.008;2023-04-25T10:11:47;10.00;99.90
3334;DHT22;1679;50.392;8.008;2023-04-25T10:14:16;9.90;99.90
3334;DHT22;1679;50.392;8.008;2023-04-25T10:16:42;9.80;99.90
3334;DHT22;1679;50.392;8.008;2023-04-25T10:19:09;9.80;99.90
3334;DHT22;1679;50.392;8.008;2023-04-25T10:21:44;9.80;99.90
3334;DHT22;1679;50.392;8.008;2023-04-25T10:24:11;10.00;99.90
3334;DHT22;1679;50.392;8.008;2023-04-25T10:26:37;10.30;99.90
3334;DHT22;1679;50.392;8.008;2023-04-25T10:29:03;10.30;99.90
3334;DHT22;1679;50.392;8.008;2023-04-25T10:31:30;10.20;99.90
3334;DHT22;1679;50.392;8.008;2023-04-25T10:33:56;10.10;99.90
3334;DHT22;1679;50.392;8.008;2023-04-25T10:36:23;10.00;99.90
3334;DHT22;1679;50.392;8.008;2023-04-25T10:38:49;10.20;99.90
3334;DHT22;1679;50.392;8.008;2023-04-25T10:41:21;10.30;99.90
3334;DHT22;1679;50.392;8.008;2023-04-25T10:43:48;10.40;99.90
3334;DHT22;1679;50.392;8.008;2023-04-25T10:46:24;10.40;99.90
3334;DHT22;1679;50.392;8.008;2023-04-25T10:48:52;10.50;99.90
3334;DHT22;1679;50.392;8.008;2023-04-25T10:51:34;10.50;99.90
3334;DHT22;1679;50.392;8.008;2023-04-25T10:54:07;10.70;99.90
3334;DHT22;1679;50.392;8.008;2023-04-25T10:56:41;11.00;99.90
3334;DHT22;1679;50.392;8.008;2023-04-25T10:59:08;11.00;99.90
3334;DHT22;1679;50.392;8.008;2023-04-25T11:01:44;11.50;99.90
3334;DHT22;1679;50.392;8.008;2023-04-25T11:04:29;11.70;99.90
3334;DHT22;1679;50.392;8.008;2023-04-25T11:07:23;10.90;99.90
3334;DHT22;1679;50.392;8.008;2023-04-25T11:09:51;10.30;99.90
3334;DHT22;1679;50.392;8.008;2023-04-25T11:12:17;10.10;99.90
3334;DHT22;1679;50.392;8.008;2023-04-25T11:14:43;10.00;99.90
3334;DHT22;1679;50.392;8.008;2023-04-25T11:17:08;9.90;99.90
3334;DHT22;1679;50.392;8.008;2023-04-25T11:19:34;10.00;99.90
3334;DHT22;1679;50.392;8.008;2023-04-25T11:22:01;10.10;99.90
3334;DHT22;1679;50.392;8.008;2023-04-25T11:24:34;10.30;99.90
3334;DHT22;1679;50.392;8.008;2023-04-25T11:27:03;10.20;99.90
3334;DHT22;1679;50.392;8.008;2023-04-25T11:29:31;10.00;99.90
3334;DHT22;1679;50.392;8.008;2023-04-25T11:31:57;9.70;99.90
3334;DHT22;1679;50.392;8.008;2023-04-25T11:34:27;9.50;99.90
3334;DHT22;1679;50.392;8.008;2023-04-25T11:36:53;9.40;99.90
3334;DHT22;1679;50.392;8.008;2023-04-25T11:39:21;9.60;99.90
3334;DHT22;1679;50.392;8.008;2023-04-25T11:41:48;9.90;99.90
3334;DHT22;1679;50.392;8.008;2023-04-25T11:44:18;10.20;99.90
3334;DHT22;1679;50.392;8.008;2023-04-25T11:46:44;10.20;99.90
3334;DHT22;1679;50.392;8.008;2023-04-25T11:49:11;10.30;99.90
3334;DHT22;1679;50.392;8.008;2023-04-25T11:54:05;10.50;99.90
3334;DHT22;1679;50.392;8.008;2023-04-25T11:56:31;10.50;99.90
3334;DHT22;1679;50.392;8.008;2023-04-25T11:59:02;10.50;99.90
3334;DHT22;1679;50.392;8.008;2023-04-25T12:01:39;10.50;99.90
3334;DHT22;1679;50.392;8.008;2023-04-25T12:04:20;10.60;99.90
3334;DHT22;1679;50.392;8.008;2023-04-25T12:06:48;10.80;99.90
3334;DHT22;1679;50.392;8.008;2023-04-25T12:09:20;10.90;99.90
3334;DHT22;1679;50.392;8.008;2023-04-25T12:11:54;11.00;99.90
3334;DHT22;1679;50.392;8.008;2023-04-25T12:14:26;10.80;99.90
3334;DHT22;1679;50.392;8.008;2023-04-25T12:16:58;10.80;99.90
3334;DHT22;1679;50.392;8.008;2023-04-25T12:19:24;10.50;99.90
3334;DHT22;1679;50.392;8.008;2023-04-25T12:21:51;10.20;99.90
3334;DHT22;1679;50.392;8.008;2023-04-25T12:24:21;10.20;99.90
3334;DHT22;1679;50.392;8.008;2023-04-25T12:26:53;10.30;99.90
3334;DHT22;1679;50.392;8.008;2023-04-25T12:29:23;10.40;99.90
3334;DHT22;1679;50.392;8.008;2023-04-25T12:31:51;10.40;99.90
3334;DHT22;1679;50.392;8.008;2023-04-25T12:34:19;10.60;99.90
3334;DHT22;1679;50.392;8.008;2023-04-25T12:36:44;10.50;99.90
3334;DHT22;1679;50.392;8.008;2023-04-25T12:39:24;10.40;99.90
3334;DHT22;1679;50.392;8.008;2023-04-25T12:41:53;10.40;99.90
3334;DHT22;1679;50.392;8.008;2023-04-25T12:44:20;10.40;99.90
3334;DHT22;1679;50.392;8.008;2023-04-25T12:46:46;10.40;99.90
3334;DHT22;1679;50.392;8.008;2023-04-25T12:49:12;10.50;99.90
3334;DHT22;1679;50.392;8.008;2023-04-25T12:51:38;10.50;99.90
3334;DHT22;1679;50.392;8.008;2023-04-25T12:54:04;10.40;99.90
3334;DHT22;1679;50.392;8.008;2023-04-25T12:56:30;10.30;99.90
3334;DHT22;1679;50.392;8.008;2023-04-25T12:58:57;10.40;99.90
3334;DHT22;1679;50.392;8.008;2023-04-25T13:01:23;10.30;99.90
3334;DHT22;1679;50.392;8.008;2023-04-25T13:03:49;10.10;99.90
3334;DHT22;1679;50.392;8.008;2023-04-25T13:06:16;10.30;99.90
3334;DHT22;1679;50.392;8.008;2023-04-25T13:08:42;10.60;99.90
3334;DHT22;1679;50.392;8.008;2023-04-25T13:11:08;10.60;99.90
3334;DHT22;1679;50.392;8.008;2023-04-25T13:13:34;10.60;99.90
3334;DHT22;1679;50.392;8.008;2023-04-25T13:16:04;10.80;99.90
3334;DHT22;1679;50.392;8.008;2023-04-25T13:18:30;11.10;99.90
3334;DHT22;1679;50.392;8.008;2023-04-25T13:20:57;11.30;99.90
3334;DHT22;1679;50.392;8.008;2023-04-25T13:23:23;11.20;99.90
3334;DHT22;1679;50.392;8.008;2023-04-25T13:25:48;10.80;99.90
3334;DHT22;1679;50.392;8.008;2023-04-25T13:28:14;10.60;99.90
3334;DHT22;1679;50.392;8.008;2023-04-25T13:30:40;10.40;99.90
3334;DHT22;1679;50.392;8.008;2023-04-25T13:33:06;10.20;99.90
3334;DHT22;1679;50.392;8.008;2023-04-25T13:35:33;10.10;99.90
3334;DHT22;1679;50.392;8.008;2023-04-25T13:37:59;9.90;99.90
3334;DHT22;1679;50.392;8.008;2023-04-25T13:40:25;9.80;99.90
3334;DHT22;1679;50.392;8.008;2023-04-25T13:42:50;9.70;99.90
3334;DHT22;1679;50.392;8.008;2023-04-25T13:45:16;9.60;99.90
3334;DHT22;1679;50.392;8.008;2023-04-25T13:47:42;9.60;99.90
3334;DHT22;1679;50.392;8.008;2023-04-25T13:50:08;9.70;99.90
3334;DHT22;1679;50.392;8.008;2023-04-25T13:52:33;9.70;99.90
3334;DHT22;1679;50.392;8.008;2023-04-25T13:54:59;9.60;99.90
3334;DHT22;1679;50.392;8.008;2023-04-25T13:57:26;9.70;99.90
3334;DHT22;1679;50.392;8.008;2023-04-25T13:59:53;9.70;99.90
3334;DHT22;1679;50.392;8.008;2023-04-25T14:02:19;9.90;99.90
3334;DHT22;1679;50.392;8.008;2023-04-25T14:04:44;10.00;99.90
3334;DHT22;1679;50.392;8.008;2023-04-25T14:07:10;10.30;99.90
3334;DHT22;1679;50.392;8.008;2023-04-25T14:09:37;10.50;99.90
3334;DHT22;1679;50.392;8.008;2023-04-25T14:12:02;10.70;99.90
3334;DHT22;1679;50.392;8.008;2023-04-25T14:14:28;10.80;99.90
3334;DHT22;1679;50.392;8.008;2023-04-25T14:16:54;10.70;99.90
3334;DHT22;1679;50.392;8.008;2023-04-25T14:19:21;10.70;99.90
3334;DHT22;1679;50.392;8.008;2023-04-25T14:21:47;10.70;99.90
3334;DHT22;1679;50.392;8.008;2023-04-25T14:24:13;10.80;99.90
3334;DHT22;1679;50.392;8.008;2023-04-25T14:26:39;10.90;99.90
3334;DHT22;1679;50.392;8.008;2023-04-25T14:29:06;10.90;99.90
3334;DHT22;1679;50.392;8.008;2023-04-25T14:31:33;11.00;99.90
3334;DHT22;1679;50.392;8.008;2023-04-25T14:33:58;11.00;99.90
3334;DHT22;1679;50.392;8.008;2023-04-25T14:36:24;11.10;99.90
3334;DHT22;1679;50.392;8.008;2023-04-25T14:38:49;11.20;99.90
3334;DHT22;1679;50.392;8.008;2023-04-25T14:41:15;11.20;99.90
3334;DHT22;1679;50.392;8.008;2023-04-25T14:43:40;11.10;99.90
3334;DHT22;1679;50.392;8.008;2023-04-25T14:46:06;11.00;99.90
3334;DHT22;1679;50.392;8.008;2023-04-25T14:48:32;10.90;99.90
3334;DHT22;1679;50.392;8.008;2023-04-25T14:50:58;10.90;99.90
3334;DHT22;1679;50.392;8.008;2023-04-25T14:53:25;10.90;99.90
3334;DHT22;1679;50.392;8.008;2023-04-25T14:55:50;10.90;99.90
3334;DHT22;1679;50.392;8.008;2023-04-25T14:58:16;11.10;99.90
3334;DHT22;1679;50.392;8.008;2023-04-25T15:00:42;11.10;99.90
3334;DHT22;1679;50.392;8.008;2023-04-25T15:03:08;11.10;99.90
3334;DHT22;1679;50.392;8.008;2023-04-25T15:05:37;11.00;99.90
3334;DHT22;1679;50.392;8.008;2023-04-25T15:08:03;11.00;99.90
3334;DHT22;1679;50.392;8.008;2023-04-25T15:10:28;11.10;99.90
3334;DHT22;1679;50.392;8.008;2023-04-25T15:12:54;11.10;99.90
3334;DHT22;1679;50.392;8.008;2023-04-25T15:15:21;11.00;99.90
3334;DHT22;1679;50.392;8.008;2023-04-25T15:17:48;10.90;99.90
3334;DHT22;1679;50.392;8.008;2023-04-25T15:20:14;10.80;99.90
3334;DHT22;1679;50.392;8.008;2023-04-25T15:22:41;10.70;99.90
3334;DHT22;1679;50.392;8.008;2023-04-25T15:25:08;10.60;99.90
3334;DHT22;1679;50.392;8.008;2023-04-25T15:27:37;10.60;99.90
3334;DHT22;1679;50.392;8.008;2023-04-25T15:30:08;10.60;99.90
3334;DHT22;1679;50.392;8.008;2023-04-25T15:32:36;10.50;99.90
3334;DHT22;1679;50.392;8.008;2023-04-25T15:35:03;10.30;99.90
3334;DHT22;1679;50.392;8.008;2023-04-25T15:37:29;10.30;99.90
3334;DHT22;1679;50.392;8.008;2023-04-25T15:40:01;10.20;99.90
3334;DHT22;1679;50.392;8.008;2023-04-25T15:42:29;10.20;99.90
3334;DHT22;1679;50.392;8.008;2023-04-25T15:44:54;10.20;99.90
3334;DHT22;1679;50.392;8.008;2023-04-25T15:47:20;10.20;99.90
3334;DHT22;1679;50.392;8.008;2023-04-25T15:49:45;10.30;99.90
3334;DHT22;1679;50.392;8.008;2023-04-25T15:52:11;10.30;99.90
3334;DHT22;1679;50.392;8.008;2023-04-25T15:54:37;10.30;99.90
3334;DHT22;1679;50.392;8.008;2023-04-25T15:57:02;10.30;99.90
3334;DHT22;1679;50.392;8.008;2023-04-25T15:59:28;10.20;99.90
3334;DHT22;1679;50.392;8.008;2023-04-25T16:01:53;10.20;99.90
3334;DHT22;1679;50.392;8.008;2023-04-25T16:04:19;10.00;99.90
3334;DHT22;1679;50.392;8.008;2023-04-25T16:06:44;9.90;99.90
3334;DHT22;1679;50.392;8.008;2023-04-25T16:09:10;9.80;99.90
3334;DHT22;1679;50.392;8.008;2023-04-25T16:11:36;9.80;99.90